sensor_id;sensor_type;location;lat;lon;timestamp;pressure;altitude;pressure_sealevel;temperature;humidity
72585;BME280;60618;40.084;32.908;2023-04-28T00:01:33;88898.34;;;7.14;79.58
72585;BME280;60618;40.084;32.908;2023-04-28T00:04:00;88900.00;;;7.11;80.73
72585;BME280;60618;40.084;32.908;2023-04-28T00:06:28;88901.84;;;7.05;79.38
72585;BME280;60618;40.084;32.908;2023-04-28T00:08:54;88920.13;;;7.03;78.97
72585;BME280;60618;40.084;32.908;2023-04-28T00:11:25;88914.28;;;6.99;80.20
72585;BME280;60618;40.084;32.908;2023-04-28T00:13:52;88913.16;;;7.06;80.53
72585;BME280;60618;40.084;32.908;2023-04-28T00:16:19;88913.38;;;7.02;81.06
72585;BME280;60618;40.084;32.908;2023-04-28T00:18:46;88915.47;;;6.98;80.99
72585;BME280;60618;40.084;32.908;2023-04-28T00:21:12;88920.16;;;6.89;80.76
72585;BME280;60618;40.084;32.908;2023-04-28T00:23:39;88913.88;;;6.86;81.34
72585;BME280;60618;40.084;32.908;2023-04-28T00:26:06;88924.66;;;6.82;79.72
72585;BME280;60618;40.084;32.908;2023-04-28T00:28:33;88920.75;;;6.78;80.31
72585;BME280;60618;40.084;32.908;2023-04-28T00:31:01;88928.09;;;6.68;80.25
72585;BME280;60618;40.084;32.908;2023-04-28T00:33:28;88931.72;;;6.71;79.95
72585;BME280;60618;40.084;32.908;2023-04-28T00:35:59;88922.19;;;6.59;79.55
72585;BME280;60618;40.084;32.908;2023-04-28T00:38:26;88932.50;;;6.57;80.25
72585;BME280;60618;40.084;32.908;2023-04-28T00:40:53;88921.56;;;6.49;79.05
72585;BME280;60618;40.084;32.908;2023-04-28T00:43:20;88937.91;;;6.47;78.92
72585;BME280;60618;40.084;32.908;2023-04-28T00:45:51;88943.09;;;6.42;79.48
72585;BME280;60618;40.084;32.908;2023-04-28T00:48:18;88942.66;;;6.43;80.51
72585;BME280;60618;40.084;32.908;2023-04-28T00:50:47;88946.38;;;6.51;80.59
72585;BME280;60618;40.084;32.908;2023-04-28T00:53:14;88947.91;;;6.58;80.87
72585;BME280;60618;40.084;32.908;2023-04-28T00:55:40;88953.16;;;6.73;80.98
72585;BME280;60618;40.084;32.908;2023-04-28T00:58:08;88954.06;;;6.85;80.51
72585;BME280;60618;40.084;32.908;2023-04-28T01:00:35;88957.00;;;6.72;79.88
72585;BME280;60618;40.084;32.908;2023-04-28T01:03:02;88952.16;;;6.70;78.79
72585;BME280;60618;40.084;32.908;2023-04-28T01:05:29;88959.38;;;6.70;78.94
72585;BME280;60618;40.084;32.908;2023-04-28T01:07:56;88950.78;;;6.75;79.32
72585;BME280;60618;40.084;32.908;2023-04-28T01:10:23;88952.50;;;6.78;78.61
72585;BME280;60618;40.084;32.908;2023-04-28T01:12:50;88957.31;;;6.59;78.28
72585;BME280;60618;40.084;32.908;2023-04-28T01:15:18;88952.59;;;6.48;78.77
72585;BME280;60618;40.084;32.908;2023-04-28T01:17:46;88950.22;;;6.50;78.80
72585;BME280;60618;40.084;32.908;2023-04-28T01:20:13;88953.50;;;6.45;79.85
72585;BME280;60618;40.084;32.908;2023-04-28T01:22:41;88954.50;;;6.48;80.06
72585;BME280;60618;40.084;32.908;2023-04-28T01:25:08;88955.28;;;6.54;80.05
72585;BME280;60618;40.084;32.908;2023-04-28T01:27:35;88963.84;;;6.64;79.77
72585;BME280;60618;40.084;32.908;2023-04-28T01:30:02;88966.59;;;6.54;80.51
72585;BME280;60618;40.084;32.908;2023-04-28T01:32:29;88962.88;;;6.61;80.61
72585;BME280;60618;40.084;32.908;2023-04-28T01:34:55;88966.06;;;6.65;80.67
72585;BME280;60618;40.084;32.908;2023-04-28T01:37:22;88967.66;;;6.77;79.89
72585;BME280;60618;40.084;32.908;2023-04-28T01:39:49;88967.56;;;6.72;78.58
72585;BME280;60618;40.084;32.908;2023-04-28T01:42:16;88967.53;;;6.66;79.75
72585;BME280;60618;40.084;32.908;2023-04-28T01:44:43;88971.88;;;6.69;80.51
72585;BME280;60618;40.084;32.908;2023-04-28T01:47:09;88973.22;;;6.79;79.23
72585;BME280;60618;40.084;32.908;2023-04-28T01:49:36;88977.25;;;6.75;79.64
72585;BME280;60618;40.084;32.908;2023-04-28T01:52:03;88977.31;;;6.80;79.12
72585;BME280;60618;40.084;32.908;2023-04-28T01:54:30;88975.25;;;6.70;78.98
72585;BME280;60618;40.084;32.908;2023-04-28T01:56:57;88965.72;;;6.58;77.27
72585;BME280;60618;40.084;32.908;2023-04-28T01:59:24;88959.44;;;6.40;76.44
72585;BME280;60618;40.084;32.908;2023-04-28T02:01:51;88974.59;;;6.40;76.73
72585;BME280;60618;40.084;32.908;2023-04-28T02:04:17;88953.88;;;6.38;75.92
72585;BME280;60618;40.084;32.908;2023-04-28T02:06:45;88973.94;;;6.30;75.79
72585;BME280;60618;40.084;32.908;2023-04-28T02:09:12;88973.31;;;6.06;75.86
72585;BME280;60618;40.084;32.908;2023-04-28T02:11:39;88966.00;;;6.01;77.05
72585;BME280;60618;40.084;32.908;2023-04-28T02:14:06;88976.97;;;5.93;77.23
72585;BME280;60618;40.084;32.908;2023-04-28T02:16:33;88975.66;;;5.89;76.96
72585;BME280;60618;40.084;32.908;2023-04-28T02:18:59;88974.53;;;5.81;78.15
72585;BME280;60618;40.084;32.908;2023-04-28T02:21:26;88966.81;;;5.77;78.72
72585;BME280;60618;40.084;32.908;2023-04-28T02:23:53;88978.91;;;5.69;78.97
72585;BME280;60618;40.084;32.908;2023-04-28T02:26:20;88978.56;;;5.76;79.23
72585;BME280;60618;40.084;32.908;2023-04-28T02:28:47;88972.91;;;5.83;78.70
72585;BME280;60618;40.084;32.908;2023-04-28T02:31:14;88972.63;;;5.81;79.23
72585;BME280;60618;40.084;32.908;2023-04-28T02:33:42;88972.72;;;5.87;78.56
72585;BME280;60618;40.084;32.908;2023-04-28T02:36:09;88966.44;;;5.84;78.44
72585;BME280;60618;40.084;32.908;2023-04-28T02:38:36;88972.56;;;5.90;78.18
72585;BME280;60618;40.084;32.908;2023-04-28T02:41:04;88975.84;;;5.85;78.59
72585;BME280;60618;40.084;32.908;2023-04-28T02:43:31;88976.84;;;5.88;77.94
72585;BME280;60618;40.084;32.908;2023-04-28T02:45:59;88976.34;;;5.75;77.25
72585;BME280;60618;40.084;32.908;2023-04-28T02:48:26;88981.75;;;5.80;77.64
72585;BME280;60618;40.084;32.908;2023-04-28T02:50:53;88987.75;;;5.81;77.89
72585;BME280;60618;40.084;32.908;2023-04-28T02:53:21;88984.72;;;5.73;77.12
72585;BME280;60618;40.084;32.908;2023-04-28T02:55:48;88979.53;;;5.64;76.87
72585;BME280;60618;40.084;32.908;2023-04-28T02:58:15;89010.25;;;5.37;76.98
72585;BME280;60618;40.084;32.908;2023-04-28T03:00:42;88991.03;;;5.37;78.00
72585;BME280;60618;40.084;32.908;2023-04-28T03:03:09;88988.50;;;5.43;77.93
72585;BME280;60618;40.084;32.908;2023-04-28T03:05:36;88993.84;;;5.33;77.01
72585;BME280;60618;40.084;32.908;2023-04-28T03:08:03;88992.72;;;5.25;76.62
72585;BME280;60618;40.084;32.908;2023-04-28T03:10:30;89000.19;;;5.27;77.86
72585;BME280;60618;40.084;32.908;2023-04-28T03:12:57;89002.69;;;5.30;77.46
72585;BME280;60618;40.084;32.908;2023-04-28T03:15:24;88984.53;;;5.23;77.28
72585;BME280;60618;40.084;32.908;2023-04-28T03:17:51;88999.81;;;5.19;76.80
72585;BME280;60618;40.084;32.908;2023-04-28T03:20:17;88999.81;;;5.19;77.51
72585;BME280;60618;40.084;32.908;2023-04-28T03:22:44;89010.03;;;5.26;77.33
72585;BME280;60618;40.084;32.908;2023-04-28T03:25:11;89017.34;;;5.07;78.13
72585;BME280;60618;40.084;32.908;2023-04-28T03:27:38;89008.56;;;5.01;78.01
72585;BME280;60618;40.084;32.908;2023-04-28T03:30:05;89013.69;;;5.05;78.93
72585;BME280;60618;40.084;32.908;2023-04-28T03:32:32;89025.13;;;5.02;78.07
72585;BME280;60618;40.084;32.908;2023-04-28T03:34:59;89033.72;;;4.88;79.06
72585;BME280;60618;40.084;32.908;2023-04-28T03:37:26;89027.94;;;4.98;79.75
72585;BME280;60618;40.084;32.908;2023-04-28T03:39:53;89037.44;;;5.05;79.35
72585;BME280;60618;40.084;32.908;2023-04-28T03:42:20;89035.56;;;4.96;79.07
72585;BME280;60618;40.084;32.908;2023-04-28T03:44:47;89045.41;;;4.96;78.25
72585;BME280;60618;40.084;32.908;2023-04-28T03:47:13;89057.88;;;4.95;78.35
72585;BME280;60618;40.084;32.908;2023-04-28T03:49:40;89047.75;;;4.94;78.23
72585;BME280;60618;40.084;32.908;2023-04-28T03:52:07;89041.00;;;4.93;77.94
72585;BME280;60618;40.084;32.908;2023-04-28T03:54:34;89054.31;;;4.98;78.74
72585;BME280;60618;40.084;32.908;2023-04-28T03:57:01;89029.88;;;4.89;78.27
72585;BME280;60618;40.084;32.908;2023-04-28T03:59:32;89053.34;;;4.87;79.21
72585;BME280;60618;40.084;32.908;2023-04-28T04:02:00;89057.25;;;5.00;78.52
72585;BME280;60618;40.084;32.908;2023-04-28T04:04:27;89062.66;;;5.06;78.26
72585;BME280;60618;40.084;32.908;2023-04-28T04:06:54;89060.75;;;5.06;76.88
72585;BME280;60618;40.084;32.908;2023-04-28T04:09:21;89057.47;;;5.11;77.29
72585;BME280;60618;40.084;32.908;2023-04-28T04:11:48;89053.19;;;5.23;77.52
72585;BME280;60618;40.084;32.908;2023-04-28T04:14:15;89066.47;;;5.29;77.16
72585;BME280;60618;40.084;32.908;2023-04-28T04:16:42;89052.41;;;5.32;76.20
72585;BME280;60618;40.084;32.908;2023-04-28T04:19:09;89057.22;;;5.33;76.75
72585;BME280;60618;40.084;32.908;2023-04-28T04:21:36;89062.50;;;5.33;75.86
72585;BME280;60618;40.084;32.908;2023-04-28T04:24:03;89075.13;;;5.29;76.54
72585;BME280;60618;40.084;32.908;2023-04-28T04:26:30;89071.03;;;5.28;77.50
72585;BME280;60618;40.084;32.908;2023-04-28T04:28:57;89083.03;;;5.29;76.70
72585;BME280;60618;40.084;32.908;2023-04-28T04:31:23;89079.69;;;5.29;76.59
72585;BME280;60618;40.084;32.908;2023-04-28T04:33:50;89085.81;;;5.35;76.34
72585;BME280;60618;40.084;32.908;2023-04-28T04:36:17;89079.69;;;5.29;77.16
72585;BME280;60618;40.084;32.908;2023-04-28T04:38:44;89094.50;;;5.26;75.75
72585;BME280;60618;40.084;32.908;2023-04-28T04:41:11;89077.47;;;5.27;76.33
72585;BME280;60618;40.084;32.908;2023-04-28T04:43:38;89080.84;;;5.28;76.23
72585;BME280;60618;40.084;32.908;2023-04-28T04:46:05;89080.53;;;5.35;76.33
72585;BME280;60618;40.084;32.908;2023-04-28T04:48:32;89083.63;;;5.33;76.89
72585;BME280;60618;40.084;32.908;2023-04-28T04:50:58;89084.34;;;5.34;75.55
72585;BME280;60618;40.084;32.908;2023-04-28T04:53:25;89092.53;;;5.36;75.41
72585;BME280;60618;40.084;32.908;2023-04-28T04:55:52;89084.41;;;5.49;75.91
72585;BME280;60618;40.084;32.908;2023-04-28T04:58:19;89096.22;;;5.62;75.99
72585;BME280;60618;40.084;32.908;2023-04-28T05:00:46;89088.28;;;5.62;74.60
72585;BME280;60618;40.084;32.908;2023-04-28T05:03:13;89093.75;;;5.59;75.19
72585;BME280;60618;40.084;32.908;2023-04-28T05:05:40;89095.41;;;5.71;74.07
72585;BME280;60618;40.084;32.908;2023-04-28T05:08:14;89089.81;;;5.78;75.36
72585;BME280;60618;40.084;32.908;2023-04-28T05:10:46;89086.44;;;5.78;75.79
72585;BME280;60618;40.084;32.908;2023-04-28T05:13:13;89095.09;;;5.78;74.42
72585;BME280;60618;40.084;32.908;2023-04-28T05:15:39;89092.38;;;5.87;74.75
72585;BME280;60618;40.084;32.908;2023-04-28T05:18:07;89089.97;;;5.98;74.29
72585;BME280;60618;40.084;32.908;2023-04-28T05:20:33;89087.91;;;6.03;73.21
72585;BME280;60618;40.084;32.908;2023-04-28T05:23:00;89089.13;;;5.92;72.96
72585;BME280;60618;40.084;32.908;2023-04-28T05:25:27;89096.94;;;5.87;73.18
72585;BME280;60618;40.084;32.908;2023-04-28T05:27:55;89103.94;;;5.90;72.63
72585;BME280;60618;40.084;32.908;2023-04-28T05:30:21;89096.97;;;6.02;74.04
72585;BME280;60618;40.084;32.908;2023-04-28T05:32:48;89090.09;;;6.19;72.88
72585;BME280;60618;40.084;32.908;2023-04-28T05:35:16;89091.09;;;6.07;72.85
72585;BME280;60618;40.084;32.908;2023-04-28T05:37:43;89097.81;;;6.08;73.05
72585;BME280;60618;40.084;32.908;2023-04-28T05:40:10;89100.41;;;6.17;73.09
72585;BME280;60618;40.084;32.908;2023-04-28T05:42:37;89098.22;;;6.15;72.24
72585;BME280;60618;40.084;32.908;2023-04-28T05:45:05;89102.56;;;6.18;72.22
72585;BME280;60618;40.084;32.908;2023-04-28T05:47:32;89103.59;;;6.21;72.03
72585;BME280;60618;40.084;32.908;2023-04-28T05:49:59;89102.97;;;6.26;73.45
72585;BME280;60618;40.084;32.908;2023-04-28T05:52:38;89106.88;;;6.16;72.58
72585;BME280;60618;40.084;32.908;2023-04-28T05:55:05;89095.66;;;6.21;72.82
72585;BME280;60618;40.084;32.908;2023-04-28T05:57:32;89112.00;;;6.34;72.28
72585;BME280;60618;40.084;32.908;2023-04-28T06:00:17;89109.63;;;6.36;71.90
72585;BME280;60618;40.084;32.908;2023-04-28T06:02:45;89108.91;;;6.21;72.99
72585;BME280;60618;40.084;32.908;2023-04-28T06:05:16;89118.47;;;6.33;72.62
72585;BME280;60618;40.084;32.908;2023-04-28T06:07:45;89123.16;;;6.38;72.15
72585;BME280;60618;40.084;32.908;2023-04-28T06:10:15;89107.56;;;6.40;73.13
72585;BME280;60618;40.084;32.908;2023-04-28T06:12:42;89121.22;;;6.39;72.07
72585;BME280;60618;40.084;32.908;2023-04-28T06:15:09;89116.09;;;6.35;72.20
72585;BME280;60618;40.084;32.908;2023-04-28T06:17:38;89118.41;;;6.42;72.00
72585;BME280;60618;40.084;32.908;2023-04-28T06:20:05;89118.13;;;6.40;73.01
72585;BME280;60618;40.084;32.908;2023-04-28T06:22:32;89125.16;;;6.58;72.85
72585;BME280;60618;40.084;32.908;2023-04-28T06:24:59;89129.56;;;6.76;71.57
72585;BME280;60618;40.084;32.908;2023-04-28T06:27:27;89141.06;;;6.88;71.46
72585;BME280;60618;40.084;32.908;2023-04-28T06:29:54;89131.91;;;7.03;70.46
72585;BME280;60618;40.084;32.908;2023-04-28T06:32:21;89150.09;;;7.10;71.62
72585;BME280;60618;40.084;32.908;2023-04-28T06:35:19;89143.59;;;6.97;69.98
72585;BME280;60618;40.084;32.908;2023-04-28T06:37:46;89144.34;;;6.97;69.92
72585;BME280;60618;40.084;32.908;2023-04-28T06:40:13;89133.44;;;7.25;70.53
72585;BME280;60618;40.084;32.908;2023-04-28T06:42:40;89136.88;;;7.46;69.92
72585;BME280;60618;40.084;32.908;2023-04-28T06:45:08;89122.28;;;7.71;70.02
72585;BME280;60618;40.084;32.908;2023-04-28T06:47:35;89141.84;;;7.73;68.11
72585;BME280;60618;40.084;32.908;2023-04-28T06:50:02;89142.25;;;7.86;68.53
72585;BME280;60618;40.084;32.908;2023-04-28T06:52:29;89153.78;;;7.48;67.15
72585;BME280;60618;40.084;32.908;2023-04-28T06:55:06;89142.38;;;7.27;70.21
72585;BME280;60618;40.084;32.908;2023-04-28T06:57:35;89131.91;;;7.03;68.26
72585;BME280;60618;40.084;32.908;2023-04-28T07:00:02;89137.59;;;7.11;70.46
72585;BME280;60618;40.084;32.908;2023-04-28T07:02:35;89143.03;;;7.37;70.53
72585;BME280;60618;40.084;32.908;2023-04-28T07:05:03;89142.28;;;7.36;69.18
72585;BME280;60618;40.084;32.908;2023-04-28T07:07:31;89148.84;;;7.41;68.59
72585;BME280;60618;40.084;32.908;2023-04-28T07:09:59;89146.16;;;7.21;68.07
72585;BME280;60618;40.084;32.908;2023-04-28T07:12:26;89113.41;;;7.38;69.79
72585;BME280;60618;40.084;32.908;2023-04-28T07:14:55;89144.78;;;7.60;67.90
72585;BME280;60618;40.084;32.908;2023-04-28T07:17:25;89131.06;;;7.62;68.32
72585;BME280;60618;40.084;32.908;2023-04-28T07:19:51;89136.56;;;7.93;68.00
72585;BME280;60618;40.084;32.908;2023-04-28T07:22:18;89136.13;;;8.36;66.65
72585;BME280;60618;40.084;32.908;2023-04-28T07:24:45;89136.03;;;8.76;66.15
72585;BME280;60618;40.084;32.908;2023-04-28T07:27:12;89129.34;;;8.61;64.93
72585;BME280;60618;40.084;32.908;2023-04-28T07:29:41;89143.66;;;8.63;64.42
72585;BME280;60618;40.084;32.908;2023-04-28T07:32:08;89144.97;;;8.79;65.15
72585;BME280;60618;40.084;32.908;2023-04-28T07:34:36;89131.03;;;8.84;63.29
72585;BME280;60618;40.084;32.908;2023-04-28T07:37:03;89125.16;;;8.74;62.82
72585;BME280;60618;40.084;32.908;2023-04-28T07:39:33;89130.41;;;8.69;62.52
72585;BME280;60618;40.084;32.908;2023-04-28T07:42:09;89120.09;;;8.76;62.48
72585;BME280;60618;40.084;32.908;2023-04-28T07:47:38;89125.31;;;9.23;64.56
72585;BME280;60618;40.084;32.908;2023-04-28T07:50:05;89136.81;;;9.40;66.54
72585;BME280;60618;40.084;32.908;2023-04-28T07:52:33;89126.72;;;9.50;62.08
72585;BME280;60618;40.084;32.908;2023-04-28T07:55:06;89119.72;;;9.52;63.14
72585;BME280;60618;40.084;32.908;2023-04-28T07:57:38;89139.13;;;9.27;61.97
72585;BME280;60618;40.084;32.908;2023-04-28T08:00:06;89138.66;;;9.28;62.41
72585;BME280;60618;40.084;32.908;2023-04-28T08:02:33;89120.03;;;9.60;61.66
72585;BME280;60618;40.084;32.908;2023-04-28T08:05:00;89139.88;;;9.64;61.83
72585;BME280;60618;40.084;32.908;2023-04-28T08:07:28;89130.16;;;9.56;60.05
72585;BME280;60618;40.084;32.908;2023-04-28T08:09:55;89136.44;;;9.53;61.20
72585;BME280;60618;40.084;32.908;2023-04-28T08:12:26;89133.25;;;9.49;59.86
72585;BME280;60618;40.084;32.908;2023-04-28T08:14:53;89109.56;;;9.14;59.50
72585;BME280;60618;40.084;32.908;2023-04-28T08:17:20;89130.72;;;9.34;61.02
72585;BME280;60618;40.084;32.908;2023-04-28T08:19:47;89112.63;;;9.75;61.58
72585;BME280;60618;40.084;32.908;2023-04-28T08:22:14;89128.94;;;9.57;60.61
72585;BME280;60618;40.084;32.908;2023-04-28T08:24:42;89126.03;;;9.55;62.73
72585;BME280;60618;40.084;32.908;2023-04-28T08:27:21;89126.53;;;9.53;60.55
72585;BME280;60618;40.084;32.908;2023-04-28T08:29:48;89104.91;;;9.40;63.19
72585;BME280;60618;40.084;32.908;2023-04-28T08:32:18;89102.84;;;9.55;61.38
72585;BME280;60618;40.084;32.908;2023-04-28T08:34:49;89110.34;;;10.00;62.15
72585;BME280;60618;40.084;32.908;2023-04-28T08:37:16;89108.97;;;10.21;59.92
72585;BME280;60618;40.084;32.908;2023-04-28T08:39:48;89103.66;;;10.21;59.17
72585;BME280;60618;40.084;32.908;2023-04-28T08:42:16;89098.97;;;10.05;59.14
72585;BME280;60618;40.084;32.908;2023-04-28T08:44:44;89103.50;;;10.36;59.84
72585;BME280;60618;40.084;32.908;2023-04-28T08:47:13;89102.34;;;10.59;58.94
72585;BME280;60618;40.084;32.908;2023-04-28T08:49:40;89094.22;;;10.20;59.12
72585;BME280;60618;40.084;32.908;2023-04-28T08:52:11;89100.19;;;10.04;60.01
72585;BME280;60618;40.084;32.908;2023-04-28T08:54:39;89084.06;;;9.70;60.34
72585;BME280;60618;40.084;32.908;2023-04-28T08:57:10;89100.16;;;9.50;60.13
72585;BME280;60618;40.084;32.908;2023-04-28T08:59:40;89088.19;;;9.71;59.84
72585;BME280;60618;40.084;32.908;2023-04-28T09:02:07;89083.44;;;9.86;59.85
72585;BME280;60618;40.084;32.908;2023-04-28T09:04:39;89081.28;;;9.90;59.02
72585;BME280;60618;40.084;32.908;2023-04-28T09:07:10;89077.47;;;10.03;59.12
72585;BME280;60618;40.084;32.908;2023-04-28T09:09:37;89089.75;;;9.94;59.22
72585;BME280;60618;40.084;32.908;2023-04-28T09:12:17;89092.31;;;9.72;59.77
72585;BME280;60618;40.084;32.908;2023-04-28T09:14:58;89076.50;;;9.57;59.01
72585;BME280;60618;40.084;32.908;2023-04-28T09:17:50;89067.81;;;9.57;58.56
72585;BME280;60618;40.084;32.908;2023-04-28T09:20:21;89083.25;;;9.53;59.43
72585;BME280;60618;40.084;32.908;2023-04-28T09:22:49;89076.56;;;9.63;57.95
72585;BME280;60618;40.084;32.908;2023-04-28T09:25:28;89074.19;;;9.71;59.63
72585;BME280;60618;40.084;32.908;2023-04-28T09:27:55;89065.00;;;9.72;57.89
72585;BME280;60618;40.084;32.908;2023-04-28T09:30:37;89064.72;;;9.64;57.82
72585;BME280;60618;40.084;32.908;2023-04-28T09:33:04;89076.28;;;9.61;57.48
72585;BME280;60618;40.084;32.908;2023-04-28T09:35:44;89075.09;;;9.62;58.07
72585;BME280;60618;40.084;32.908;2023-04-28T09:38:11;89062.78;;;9.70;59.07
72585;BME280;60618;40.084;32.908;2023-04-28T09:40:57;89090.22;;;9.93;58.66
72585;BME280;60618;40.084;32.908;2023-04-28T09:43:34;89073.78;;;9.94;57.50
72585;BME280;60618;40.084;32.908;2023-04-28T09:46:03;89075.50;;;9.98;58.53
72585;BME280;60618;40.084;32.908;2023-04-28T09:48:35;89083.03;;;10.05;58.19
72585;BME280;60618;40.084;32.908;2023-04-28T09:51:04;89073.13;;;10.11;57.44
72585;BME280;60618;40.084;32.908;2023-04-28T09:53:31;89067.81;;;10.11;58.07
72585;BME280;60618;40.084;32.908;2023-04-28T09:56:01;89072.13;;;10.03;57.50
72585;BME280;60618;40.084;32.908;2023-04-28T09:58:30;89063.72;;;10.15;55.97
72585;BME280;60618;40.084;32.908;2023-04-28T10:00:59;89076.56;;;10.17;56.55
72585;BME280;60618;40.084;32.908;2023-04-28T10:03:28;89077.25;;;10.12;58.32
72585;BME280;60618;40.084;32.908;2023-04-28T10:05:58;89071.72;;;10.21;58.18
72585;BME280;60618;40.084;32.908;2023-04-28T10:08:29;89078.94;;;10.09;60.09
72585;BME280;60618;40.084;32.908;2023-04-28T10:10:56;89082.06;;;10.02;59.42
72585;BME280;60618;40.084;32.908;2023-04-28T10:13:25;89073.38;;;10.07;61.00
72585;BME280;60618;40.084;32.908;2023-04-28T10:16:06;89074.09;;;10.13;58.54
72585;BME280;60618;40.084;32.908;2023-04-28T10:18:34;89069.03;;;10.15;59.10
72585;BME280;60618;40.084;32.908;2023-04-28T10:21:03;89063.31;;;10.28;58.96
72585;BME280;60618;40.084;32.908;2023-04-28T10:23:59;89059.84;;;10.11;58.17
72585;BME280;60618;40.084;32.908;2023-04-28T10:29:29;89065.78;;;9.83;58.31
72585;BME280;60618;40.084;32.908;2023-04-28T10:32:22;89077.53;;;9.65;57.64
72585;BME280;60618;40.084;32.908;2023-04-28T10:34:49;89075.31;;;9.58;57.47
72585;BME280;60618;40.084;32.908;2023-04-28T10:37:16;89071.34;;;9.43;59.76
72585;BME280;60618;40.084;32.908;2023-04-28T10:42:53;89056.22;;;9.17;59.35
72585;BME280;60618;40.084;32.908;2023-04-28T10:46:01;89065.78;;;9.03;58.38
72585;BME280;60618;40.084;32.908;2023-04-28T10:58:37;89058.63;;;8.84;59.54
72585;BME280;60618;40.084;32.908;2023-04-28T11:01:29;89056.22;;;8.86;59.49
72585;BME280;60618;40.084;32.908;2023-04-28T11:04:05;89069.81;;;8.93;59.22
72585;BME280;60618;40.084;32.908;2023-04-28T11:06:37;89059.03;;;8.76;59.04
72585;BME280;60618;40.084;32.908;2023-04-28T11:16:54;89060.84;;;8.91;59.92
72585;BME280;60618;40.084;32.908;2023-04-28T11:19:23;89062.81;;;8.96;59.89
72585;BME280;60618;40.084;32.908;2023-04-28T11:21:52;89063.03;;;8.92;59.41
72585;BME280;60618;40.084;32.908;2023-04-28T11:24:19;89068.47;;;8.77;58.72
72585;BME280;60618;40.084;32.908;2023-04-28T11:26:46;89051.81;;;8.77;59.96
72585;BME280;60618;40.084;32.908;2023-04-28T11:29:13;89058.88;;;8.86;60.31
72585;BME280;60618;40.084;32.908;2023-04-28T11:31:48;89057.00;;;8.92;59.40
72585;BME280;60618;40.084;32.908;2023-04-28T11:34:19;89055.78;;;8.93;59.96
72585;BME280;60618;40.084;32.908;2023-04-28T11:36:46;89051.22;;;8.93;58.91
72585;BME280;60618;40.084;32.908;2023-04-28T11:39:13;89052.13;;;8.85;57.92
72585;BME280;60618;40.084;32.908;2023-04-28T11:41:43;89053.56;;;8.86;58.90
72585;BME280;60618;40.084;32.908;2023-04-28T11:44:15;89053.91;;;8.99;59.41
72585;BME280;60618;40.084;32.908;2023-04-28T11:49:17;89042.59;;;9.04;57.47
72585;BME280;60618;40.084;32.908;2023-04-28T11:51:44;89044.28;;;9.07;57.79
72585;BME280;60618;40.084;32.908;2023-04-28T11:54:11;89037.09;;;9.13;57.03
72585;BME280;60618;40.084;32.908;2023-04-28T11:56:41;89035.34;;;9.04;56.39
72585;BME280;60618;40.084;32.908;2023-04-28T11:59:10;89051.25;;;8.99;56.81
72585;BME280;60618;40.084;32.908;2023-04-28T12:01:48;89035.56;;;9.01;56.60
72585;BME280;60618;40.084;32.908;2023-04-28T12:04:45;89045.25;;;9.04;56.01
72585;BME280;60618;40.084;32.908;2023-04-28T12:07:16;89022.38;;;9.12;56.21
72585;BME280;60618;40.084;32.908;2023-04-28T12:10:11;89022.13;;;9.16;55.95
72585;BME280;60618;40.084;32.908;2023-04-28T12:12:40;89036.84;;;9.11;56.35
72585;BME280;60618;40.084;32.908;2023-04-28T12:15:20;89032.56;;;9.19;56.61
72585;BME280;60618;40.084;32.908;2023-04-28T12:17:48;89031.78;;;9.13;55.63
72585;BME280;60618;40.084;32.908;2023-04-28T12:20:37;89040.53;;;9.19;56.88
72585;BME280;60618;40.084;32.908;2023-04-28T12:23:05;89029.56;;;9.06;54.98
72585;BME280;60618;40.084;32.908;2023-04-28T12:25:32;89029.06;;;9.02;55.24
72585;BME280;60618;40.084;32.908;2023-04-28T12:28:04;89016.97;;;9.01;55.47
72585;BME280;60618;40.084;32.908;2023-04-28T12:30:33;89027.13;;;9.02;56.84
72585;BME280;60618;40.084;32.908;2023-04-28T12:36:01;89019.13;;;8.97;54.76
72585;BME280;60618;40.084;32.908;2023-04-28T12:38:29;89037.03;;;8.70;56.40
72585;BME280;60618;40.084;32.908;2023-04-28T12:40:57;89037.88;;;8.56;58.32
72585;BME280;60618;40.084;32.908;2023-04-28T12:43:24;89024.44;;;8.65;58.14
72585;BME280;60618;40.084;32.908;2023-04-28T12:46:02;89025.25;;;8.77;57.68
72585;BME280;60618;40.084;32.908;2023-04-28T12:48:29;89009.84;;;8.81;56.56
72585;BME280;60618;40.084;32.908;2023-04-28T12:50:58;89016.13;;;8.84;55.61
72585;BME280;60618;40.084;32.908;2023-04-28T12:53:25;89021.94;;;8.82;56.58
72585;BME280;60618;40.084;32.908;2023-04-28T12:55:53;89003.78;;;8.80;57.74
72585;BME280;60618;40.084;32.908;2023-04-28T12:58:21;89019.47;;;8.47;58.31
72585;BME280;60618;40.084;32.908;2023-04-28T13:00:48;89032.69;;;8.41;57.72
72585;BME280;60618;40.084;32.908;2023-04-28T13:03:17;89020.84;;;8.37;58.44
72585;BME280;60618;40.084;32.908;2023-04-28T13:05:45;89022.78;;;8.42;58.34
72585;BME280;60618;40.084;32.908;2023-04-28T13:08:14;89015.63;;;8.48;57.45
72585;BME280;60618;40.084;32.908;2023-04-28T13:10:41;89042.56;;;8.41;57.34
72585;BME280;60618;40.084;32.908;2023-04-28T13:13:08;89030.09;;;8.26;59.30
72585;BME280;60618;40.084;32.908;2023-04-28T13:15:35;89030.00;;;8.36;58.80
72585;BME280;60618;40.084;32.908;2023-04-28T13:18:04;89027.03;;;8.34;58.64
72585;BME280;60618;40.084;32.908;2023-04-28T13:20:34;89022.75;;;8.36;57.22
72585;BME280;60618;40.084;32.908;2023-04-28T13:23:01;89035.94;;;8.31;57.67
72585;BME280;60618;40.084;32.908;2023-04-28T13:25:28;89012.00;;;8.25;57.63
72585;BME280;60618;40.084;32.908;2023-04-28T13:27:55;89039.94;;;8.20;58.07
72585;BME280;60618;40.084;32.908;2023-04-28T13:30:22;89014.03;;;8.10;56.77
72585;BME280;60618;40.084;32.908;2023-04-28T13:32:49;89035.25;;;8.10;56.82
72585;BME280;60618;40.084;32.908;2023-04-28T13:35:16;89011.53;;;8.01;57.71
72585;BME280;60618;40.084;32.908;2023-04-28T13:37:43;89025.91;;;7.94;58.25
72585;BME280;60618;40.084;32.908;2023-04-28T13:40:11;89017.06;;;7.77;59.14
72585;BME280;60618;40.084;32.908;2023-04-28T13:42:38;89037.53;;;7.76;59.66